Time;durP1;ratioP1;P1;durP2;ratioP2;P2;SDS_P1;SDS_P2;PMS_P1;PMS_P2;Temp;Humidity;BMP_temperature;BMP_pressure;BME280_temperature;BME280_humidity;BME280_pressure;Samples;Min_cycle;Max_cycle;Signal;HPM_P1;HPM_P2
2023/05/19 00:00:24;;;;;;;17.37;6.30;;;;;;;;;;5032382;28;20022;-79
2023/05/19 00:02:50;;;;;;;16.83;6.60;;;;;;;;;;5016662;28;20018;-79
2023/05/19 00:05:17;;;;;;;15.40;6.30;;;;;;;;;;5015514;28;20036;-79
2023/05/19 00:07:46;;;;;;;13.23;6.37;;;;;;;;;;5017972;28;20035;-78
2023/05/19 00:10:12;;;;;;;10.93;5.20;;;;;;;;;;5016287;28;20085;-80
2023/05/19 00:12:38;;;;;;;14.53;6.33;;;;;;;;;;5019314;28;20053;-80
2023/05/19 00:15:05;;;;;;;12.27;5.40;;;;;;;;;;5018235;28;20028;-79
2023/05/19 00:17:33;;;;;;;11.73;5.40;;;;;;;;;;5031233;28;20057;-80
2023/05/19 00:20:01;;;;;;;15.20;6.07;;;;;;;;;;5036358;28;20025;-79
2023/05/19 00:22:27;;;;;;;12.03;5.90;;;;;;;;;;5016932;28;20023;-78
2023/05/19 00:24:55;;;;;;;14.53;6.00;;;;;;;;;;5015949;28;20018;-79
2023/05/19 00:27:21;;;;;;;11.73;5.97;;;;;;;;;;5035439;28;20050;-78
2023/05/19 00:29:55;;;;;;;13.23;6.40;;;;;;;;;;5031821;28;20022;-79
2023/05/19 00:32:21;;;;;;;13.80;6.57;;;;;;;;;;5018389;28;20050;-78
2023/05/19 00:34:49;;;;;;;14.57;5.80;;;;;;;;;;5018711;28;20026;-79
2023/05/19 00:37:15;;;;;;;12.53;6.70;;;;;;;;;;5016236;28;20023;-79
2023/05/19 00:39:42;;;;;;;14.83;5.90;;;;;;;;;;5014350;28;20011;-79
2023/05/19 00:42:08;;;;;;;16.40;7.87;;;;;;;;;;5015846;28;20025;-79
2023/05/19 00:44:36;;;;;;;16.07;7.03;;;;;;;;;;5029033;28;20225;-79
2023/05/19 00:47:02;;;;;;;12.70;6.90;;;;;;;;;;5017543;28;20038;-80
2023/05/19 00:49:28;;;;;;;13.93;6.33;;;;;;;;;;5020206;28;20058;-77
2023/05/19 00:51:54;;;;;;;10.73;6.30;;;;;;;;;;5017100;28;20022;-78
2023/05/19 00:54:20;;;;;;;12.93;7.30;;;;;;;;;;5032047;28;20047;-78
2023/05/19 00:56:48;;;;;;;11.63;6.90;;;;;;;;;;5033752;28;20038;-79
2023/05/19 00:59:14;;;;;;;11.63;6.17;;;;;;;;;;5015842;28;20034;-78
2023/05/19 01:01:40;;;;;;;14.00;6.90;;;;;;;;;;5011658;28;20018;-79
2023/05/19 01:04:09;;;;;;;9.60;6.37;;;;;;;;;;5014139;28;20045;-79
2023/05/19 01:06:37;;;;;;;17.10;7.07;;;;;;;;;;5015352;28;20097;-79
2023/05/19 01:09:03;;;;;;;11.63;6.03;;;;;;;;;;5015876;28;20042;-79
2023/05/19 01:11:29;;;;;;;14.17;6.93;;;;;;;;;;5015080;28;20091;-78
2023/05/19 01:13:56;;;;;;;11.60;6.23;;;;;;;;;;5013356;28;20037;-79
2023/05/19 01:16:26;;;;;;;14.67;6.80;;;;;;;;;;5013691;28;20026;-79
2023/05/19 01:18:55;;;;;;;13.37;6.90;;;;;;;;;;5029494;28;20031;-78
2023/05/19 01:21:30;;;;;;;17.10;6.80;;;;;;;;;;5030603;28;20038;-78
2023/05/19 01:24:07;;;;;;;14.93;6.93;;;;;;;;;;5017561;28;20061;-77
2023/05/19 01:26:40;;;;;;;10.37;6.40;;;;;;;;;;5012438;28;20023;-79
2023/05/19 01:29:06;;;;;;;16.48;7.45;;;;;;;;;;5014230;28;20034;-78
2023/05/19 01:31:32;;;;;;;14.17;6.67;;;;;;;;;;5016095;28;20044;-78
2023/05/19 01:33:59;;;;;;;14.90;6.97;;;;;;;;;;5031106;28;20014;-79
2023/05/19 01:36:26;;;;;;;11.50;6.43;;;;;;;;;;5016146;28;20018;-80
2023/05/19 01:38:54;;;;;;;16.00;6.47;;;;;;;;;;5038374;28;20110;-80
2023/05/19 01:41:24;;;;;;;14.30;6.70;;;;;;;;;;5030325;28;20074;-79
2023/05/19 01:43:50;;;;;;;11.77;6.17;;;;;;;;;;5030339;28;20022;-78
2023/05/19 01:46:19;;;;;;;10.40;6.33;;;;;;;;;;5027656;28;20023;-78
2023/05/19 01:48:48;;;;;;;11.73;6.90;;;;;;;;;;5017355;28;20030;-79
2023/05/19 01:51:14;;;;;;;13.07;6.17;;;;;;;;;;5013208;28;20089;-79
2023/05/19 01:53:40;;;;;;;15.33;6.90;;;;;;;;;;5031971;28;20094;-80
2023/05/19 01:56:06;;;;;;;10.97;6.40;;;;;;;;;;5014686;28;20021;-78
2023/05/19 01:58:47;;;;;;;14.40;7.17;;;;;;;;;;5016001;28;20022;-78
2023/05/19 02:01:13;;;;;;;18.47;7.37;;;;;;;;;;5011410;28;20015;-78
2023/05/19 02:03:58;;;;;;;14.50;7.27;;;;;;;;;;5013564;28;20066;-78
2023/05/19 02:06:34;;;;;;;17.93;6.63;;;;;;;;;;5027535;28;20125;-78
2023/05/19 02:09:09;;;;;;;16.47;7.37;;;;;;;;;;5055099;23;20026;-79
2023/05/19 02:11:46;;;;;;;16.13;7.87;;;;;;;;;;5009920;28;20053;-78
2023/05/19 02:14:17;;;;;;;14.93;7.40;;;;;;;;;;5011059;28;20046;-79
2023/05/19 02:16:45;;;;;;;13.37;7.33;;;;;;;;;;5010351;28;20073;-79
2023/05/19 02:19:24;;;;;;;12.27;7.03;;;;;;;;;;5010726;28;20114;-79
2023/05/19 02:21:50;;;;;;;12.40;7.23;;;;;;;;;;5028416;28;20026;-79
2023/05/19 02:24:16;;;;;;;28.67;7.27;;;;;;;;;;5029372;28;20023;-79
2023/05/19 02:26:42;;;;;;;17.43;7.23;;;;;;;;;;5012811;28;20054;-78
2023/05/19 02:29:08;;;;;;;14.53;7.40;;;;;;;;;;5028749;28;20076;-79
2023/05/19 02:31:34;;;;;;;11.43;6.73;;;;;;;;;;5028460;28;20049;-79
2023/05/19 02:34:00;;;;;;;12.30;6.27;;;;;;;;;;5028164;28;20053;-79
2023/05/19 02:36:27;;;;;;;10.17;6.73;;;;;;;;;;5018134;28;20134;-78
2023/05/19 02:38:59;;;;;;;16.73;6.50;;;;;;;;;;5013574;28;20030;-79
2023/05/19 02:41:25;;;;;;;;;;;;;;;;;;5029413;28;20025;-78
2023/05/19 02:43:51;;;;;;;19.20;6.40;;;;;;;;;;5016753;28;19901;-79
2023/05/19 02:46:20;;;;;;;13.17;6.47;;;;;;;;;;5018734;28;20038;-79
2023/05/19 02:48:49;;;;;;;18.60;7.13;;;;;;;;;;5016419;28;20048;-78
2023/05/19 02:51:15;;;;;;;16.63;7.50;;;;;;;;;;5031271;28;20061;-78
2023/05/19 02:53:44;;;;;;;18.40;7.70;;;;;;;;;;5018427;28;20053;-79
2023/05/19 02:56:10;;;;;;;11.23;6.23;;;;;;;;;;5018626;28;20031;-78
2023/05/19 02:58:36;;;;;;;11.20;6.50;;;;;;;;;;5026230;28;20057;-79
2023/05/19 03:01:03;;;;;;;14.33;7.13;;;;;;;;;;5019665;28;20030;-79
2023/05/19 03:03:29;;;;;;;17.27;7.00;;;;;;;;;;5014883;28;20061;-79
2023/05/19 03:05:55;;;;;;;13.77;7.30;;;;;;;;;;5018133;28;20037;-78
2023/05/19 03:08:21;;;;;;;16.80;7.27;;;;;;;;;;5015273;28;20035;-80
2023/05/19 03:10:47;;;;;;;13.40;7.03;;;;;;;;;;5015975;28;20041;-78
2023/05/19 03:13:16;;;;;;;16.77;7.03;;;;;;;;;;5031462;28;20038;-79
2023/05/19 03:15:43;;;;;;;15.83;6.80;;;;;;;;;;5014748;28;20023;-77
2023/05/19 03:18:11;;;;;;;15.07;7.73;;;;;;;;;;5032412;28;20018;-79
2023/05/19 03:20:37;;;;;;;16.77;7.67;;;;;;;;;;5016342;28;20052;-79
2023/05/19 03:23:03;;;;;;;14.67;7.67;;;;;;;;;;5018252;28;20026;-78
2023/05/19 03:25:31;;;;;;;15.70;7.33;;;;;;;;;;5015781;28;20042;-79
2023/05/19 03:27:57;;;;;;;15.53;7.17;;;;;;;;;;5014158;28;20026;-78
2023/05/19 03:30:23;;;;;;;14.60;7.40;;;;;;;;;;5030531;28;20027;-77
2023/05/19 03:32:50;;;;;;;14.87;7.27;;;;;;;;;;5030641;28;20098;-78
2023/05/19 03:35:17;;;;;;;16.17;6.97;;;;;;;;;;5031583;28;20030;-79
2023/05/19 03:37:46;;;;;;;13.13;7.70;;;;;;;;;;5019476;28;20029;-79
2023/05/19 03:40:12;;;;;;;20.30;8.20;;;;;;;;;;5031085;28;20027;-78
2023/05/19 03:42:38;;;;;;;20.43;7.00;;;;;;;;;;5030682;28;20015;-80
2023/05/19 03:45:04;;;;;;;14.23;6.53;;;;;;;;;;5030101;28;20018;-78
2023/05/19 03:47:30;;;;;;;19.47;8.37;;;;;;;;;;5016312;28;20036;-78
2023/05/19 03:49:56;;;;;;;18.83;7.73;;;;;;;;;;5014362;28;20018;-78
2023/05/19 03:52:22;;;;;;;16.10;7.87;;;;;;;;;;5010832;28;20029;-77
2023/05/19 03:54:48;;;;;;;16.43;8.10;;;;;;;;;;5013899;28;20054;-79
2023/05/19 03:57:14;;;;;;;22.23;7.73;;;;;;;;;;5031183;28;20010;-78
2023/05/19 03:59:41;;;;;;;16.97;7.63;;;;;;;;;;5014266;28;20095;-80
2023/05/19 04:02:07;;;;;;;19.13;7.50;;;;;;;;;;5030824;28;20037;-80
2023/05/19 04:04:36;;;;;;;14.80;7.87;;;;;;;;;;5014389;28;20015;-78
2023/05/19 04:07:03;;;;;;;20.47;8.67;;;;;;;;;;5012875;28;20034;-79
2023/05/19 04:09:30;;;;;;;12.90;7.83;;;;;;;;;;5015411;28;20459;-79
2023/05/19 04:11:57;;;;;;;13.13;7.23;;;;;;;;;;5011732;28;20011;-79
2023/05/19 04:14:23;;;;;;;16.93;8.33;;;;;;;;;;5013404;28;20050;-79
2023/05/19 04:16:49;;;;;;;19.77;8.03;;;;;;;;;;5010815;28;20090;-77
2023/05/19 04:19:15;;;;;;;18.10;7.97;;;;;;;;;;5015045;28;20045;-78
2023/05/19 04:21:41;;;;;;;13.27;7.67;;;;;;;;;;5017468;28;20041;-78
2023/05/19 04:24:08;;;;;;;12.80;6.90;;;;;;;;;;5013359;28;20022;-79
2023/05/19 04:26:39;;;;;;;12.47;7.70;;;;;;;;;;5013277;28;20019;-78
2023/05/19 04:29:05;;;;;;;17.87;8.40;;;;;;;;;;5030963;28;20049;-78
2023/05/19 04:31:33;;;;;;;16.73;8.33;;;;;;;;;;5029690;28;20092;-79
2023/05/19 04:34:00;;;;;;;24.97;7.77;;;;;;;;;;5013692;28;20050;-78
2023/05/19 04:36:32;;;;;;;21.47;8.63;;;;;;;;;;5018086;28;20038;-79
2023/05/19 04:39:05;;;;;;;11.63;7.18;;;;;;;;;;5029254;28;20027;-79
2023/05/19 04:41:32;;;;;;;13.07;8.15;;;;;;;;;;5014353;28;20018;-78
2023/05/19 04:43:58;;;;;;;13.60;7.77;;;;;;;;;;5030202;28;20045;-79
2023/05/19 04:46:25;;;;;;;18.83;8.40;;;;;;;;;;5013142;28;20035;-79
2023/05/19 04:48:52;;;;;;;19.23;8.40;;;;;;;;;;5012518;28;20038;-79
2023/05/19 04:51:21;;;;;;;19.07;7.43;;;;;;;;;;5013179;28;20023;-78
2023/05/19 04:53:53;;;;;;;17.10;7.90;;;;;;;;;;5017052;28;20030;-79
2023/05/19 04:56:19;;;;;;;15.35;7.68;;;;;;;;;;5029154;28;20026;-79
2023/05/19 04:58:47;;;;;;;16.63;7.93;;;;;;;;;;5013383;28;20030;-78
2023/05/19 05:01:14;;;;;;;17.13;8.20;;;;;;;;;;5012987;28;20027;-77
2023/05/19 05:03:42;;;;;;;15.43;8.07;;;;;;;;;;5011401;28;20023;-79
2023/05/19 05:06:11;;;;;;;22.37;8.47;;;;;;;;;;5012321;28;20030;-78
2023/05/19 05:08:39;;;;;;;22.33;8.13;;;;;;;;;;5012002;28;20026;-79
2023/05/19 05:11:07;;;;;;;14.43;7.90;;;;;;;;;;5012009;28;20022;-78
2023/05/19 05:13:34;;;;;;;19.43;8.67;;;;;;;;;;5012416;28;20022;-79
2023/05/19 05:16:00;;;;;;;17.90;7.83;;;;;;;;;;5015119;28;20023;-78
2023/05/19 05:18:26;;;;;;;25.07;8.83;;;;;;;;;;5025281;28;20031;-79
2023/05/19 05:20:55;;;;;;;15.73;7.77;;;;;;;;;;5017246;28;20053;-79
2023/05/19 05:23:21;;;;;;;18.53;8.37;;;;;;;;;;5013365;28;20038;-79
2023/05/19 05:25:52;;;;;;;17.00;8.30;;;;;;;;;;5012589;28;20066;-78
2023/05/19 05:28:21;;;;;;;16.83;7.60;;;;;;;;;;5009588;28;20030;-80
2023/05/19 05:30:50;;;;;;;15.20;7.33;;;;;;;;;;5029888;28;20023;-79
2023/05/19 05:33:16;;;;;;;17.77;7.27;;;;;;;;;;5012472;28;20036;-78
2023/05/19 05:35:45;;;;;;;12.23;6.77;;;;;;;;;;5012767;28;20033;-79
2023/05/19 05:38:14;;;;;;;15.83;6.43;;;;;;;;;;5010933;28;20036;-78
2023/05/19 05:40:42;;;;;;;16.67;6.00;;;;;;;;;;5012586;28;20028;-79
2023/05/19 05:43:08;;;;;;;12.07;5.40;;;;;;;;;;5029617;28;20014;-79
2023/05/19 05:45:37;;;;;;;15.00;5.33;;;;;;;;;;5011427;28;20023;-80
2023/05/19 05:48:05;;;;;;;11.63;5.60;;;;;;;;;;5016579;28;20064;-79
2023/05/19 05:50:34;;;;;;;15.60;5.70;;;;;;;;;;5013886;28;20077;-79
2023/05/19 05:53:01;;;;;;;11.87;5.47;;;;;;;;;;5016534;28;20028;-80
2023/05/19 05:55:35;;;;;;;10.23;5.10;;;;;;;;;;5029647;28;20014;-78
2023/05/19 05:58:02;;;;;;;12.30;4.73;;;;;;;;;;5011968;28;20015;-79
2023/05/19 06:00:30;;;;;;;11.80;4.93;;;;;;;;;;5012006;28;20049;-78
2023/05/19 06:02:59;;;;;;;16.43;4.50;;;;;;;;;;5013513;28;20034;-79
2023/05/19 06:05:25;;;;;;;11.73;4.90;;;;;;;;;;5012717;28;20058;-79
2023/05/19 06:07:51;;;;;;;12.23;3.63;;;;;;;;;;5013563;28;20042;-80
2023/05/19 06:10:17;;;;;;;10.73;3.03;;;;;;;;;;5014708;28;20019;-79
2023/05/19 06:12:46;;;;;;;9.87;3.37;;;;;;;;;;5026305;28;20066;-79
2023/05/19 06:15:12;;;;;;;8.10;3.00;;;;;;;;;;5010460;28;20014;-79
2023/05/19 06:17:38;;;;;;;10.97;2.53;;;;;;;;;;5012199;28;20014;-79
2023/05/19 06:20:12;;;;;;;6.30;2.70;;;;;;;;;;5007746;28;20039;-79
2023/05/19 06:22:38;;;;;;;11.47;2.57;;;;;;;;;;5011407;28;20094;-79
2023/05/19 06:25:04;;;;;;;8.47;2.50;;;;;;;;;;5010361;28;20027;-80
2023/05/19 06:27:30;;;;;;;10.07;2.10;;;;;;;;;;5010506;28;20018;-78
2023/05/19 06:29:56;;;;;;;6.73;2.37;;;;;;;;;;5013837;28;20015;-78
2023/05/19 06:32:22;;;;;;;11.53;2.43;;;;;;;;;;5012949;28;20034;-78
2023/05/19 06:34:53;;;;;;;9.93;2.80;;;;;;;;;;5011104;28;20038;-80
2023/05/19 06:37:22;;;;;;;14.20;2.60;;;;;;;;;;5013144;28;20041;-79
2023/05/19 06:40:14;;;;;;;8.33;2.10;;;;;;;;;;5012897;28;20026;-79
2023/05/19 06:42:41;;;;;;;15.60;2.65;;;;;;;;;;5015500;28;20018;-78
2023/05/19 06:45:07;;;;;;;11.17;2.87;;;;;;;;;;5015363;28;20046;-78
2023/05/19 06:47:35;;;;;;;5.87;1.97;;;;;;;;;;5027445;28;20045;-79
2023/05/19 06:50:01;;;;;;;10.03;2.80;;;;;;;;;;5011873;28;20031;-78
2023/05/19 06:52:28;;;;;;;8.33;1.90;;;;;;;;;;5009711;28;20091;-78
2023/05/19 06:54:54;;;;;;;11.37;2.87;;;;;;;;;;5008580;28;20094;-78
2023/05/19 06:57:20;;;;;;;9.03;2.83;;;;;;;;;;5009706;28;20086;-79
2023/05/19 06:59:48;;;;;;;15.97;2.97;;;;;;;;;;5027853;28;20026;-79
2023/05/19 07:02:17;;;;;;;10.97;2.80;;;;;;;;;;5009804;28;20030;-80
2023/05/19 07:04:46;;;;;;;8.67;3.20;;;;;;;;;;5012045;28;20038;-78
2023/05/19 07:07:12;;;;;;;8.60;2.23;;;;;;;;;;5009010;28;20078;-82
2023/05/19 07:09:38;;;;;;;9.67;2.10;;;;;;;;;;5011668;28;20039;-81
2023/05/19 07:12:04;;;;;;;10.03;2.10;;;;;;;;;;5027949;28;20023;-79
2023/05/19 07:14:35;;;;;;;10.83;1.87;;;;;;;;;;5009801;28;20042;-77
2023/05/19 07:17:01;;;;;;;9.23;2.23;;;;;;;;;;5011482;28;20041;-79
2023/05/19 07:19:27;;;;;;;9.43;2.70;;;;;;;;;;5016085;28;21095;-78
2023/05/19 07:21:54;;;;;;;8.60;2.30;;;;;;;;;;5009600;28;20018;-78
2023/05/19 07:24:20;;;;;;;5.83;2.13;;;;;;;;;;5009545;28;20027;-81
2023/05/19 07:26:47;;;;;;;11.37;1.93;;;;;;;;;;5012230;28;20019;-79
2023/05/19 07:29:15;;;;;;;6.90;1.57;;;;;;;;;;5012066;28;20050;-79
2023/05/19 07:31:52;;;;;;;10.53;2.27;;;;;;;;;;5015774;28;20026;-79
2023/05/19 07:34:24;;;;;;;9.37;1.80;;;;;;;;;;5028439;28;20083;-79
2023/05/19 07:36:53;;;;;;;11.87;2.10;;;;;;;;;;5011978;28;20027;-78
2023/05/19 07:39:19;;;;;;;7.80;2.27;;;;;;;;;;5030964;28;20022;-79
2023/05/19 07:41:51;;;;;;;8.37;2.00;;;;;;;;;;5011609;28;20037;-79
2023/05/19 07:44:17;;;;;;;8.20;2.67;;;;;;;;;;5013952;28;20035;-77
2023/05/19 07:46:48;;;;;;;11.53;1.97;;;;;;;;;;5030358;28;20112;-78
2023/05/19 07:49:14;;;;;;;7.27;1.97;;;;;;;;;;5016182;28;20065;-79
2023/05/19 07:51:43;;;;;;;10.47;2.53;;;;;;;;;;5014210;28;20022;-78
2023/05/19 07:54:10;;;;;;;7.27;1.70;;;;;;;;;;5012680;28;20030;-78
2023/05/19 07:56:36;;;;;;;8.30;2.60;;;;;;;;;;5012492;28;20033;-79
2023/05/19 07:59:06;;;;;;;7.20;3.37;;;;;;;;;;5011870;28;20043;-78
2023/05/19 08:01:33;;;;;;;7.10;3.20;;;;;;;;;;5014194;28;20038;-79
2023/05/19 08:03:59;;;;;;;10.67;2.80;;;;;;;;;;5012630;28;20073;-78
2023/05/19 08:06:25;;;;;;;11.23;2.03;;;;;;;;;;5025266;28;20018;-79
2023/05/19 08:09:09;;;;;;;7.40;1.90;;;;;;;;;;5029269;28;20047;-79
2023/05/19 08:11:46;;;;;;;7.57;1.63;;;;;;;;;;5025268;28;20023;-78
2023/05/19 08:14:25;;;;;;;;;;;;;;;;;;;;;
2023/05/19 08:16:53;;;;;;;9.73;2.30;;;;;;;;;;5011127;28;20062;-79
2023/05/19 08:19:22;;;;;;;7.53;2.27;;;;;;;;;;5030434;28;20011;-79
2023/05/19 08:21:48;;;;;;;7.97;2.10;;;;;;;;;;5013743;28;20035;-78
2023/05/19 08:24:17;;;;;;;6.77;3.43;;;;;;;;;;5016308;28;20014;-79
2023/05/19 08:26:43;;;;;;;7.57;2.07;;;;;;;;;;5029020;28;20026;-79
2023/05/19 08:29:21;;;;;;;10.13;2.30;;;;;;;;;;5012871;28;20111;-79
2023/05/19 08:31:52;;;;;;;7.23;2.23;;;;;;;;;;5016792;28;20031;-79
2023/05/19 08:34:26;;;;;;;8.23;2.00;;;;;;;;;;5027207;28;20026;-79
2023/05/19 08:37:02;;;;;;;;;;;;;;;;;;;;;
2023/05/19 08:39:29;;;;;;;11.17;2.13;;;;;;;;;;5010384;28;20057;-78
2023/05/19 08:42:14;;;;;;;;;;;;;;;;;;;;;
2023/05/19 08:44:42;;;;;;;4.13;1.60;;;;;;;;;;5010364;28;20044;-79
2023/05/19 08:47:12;;;;;;;7.37;2.80;;;;;;;;;;5013183;28;20019;-77
2023/05/19 08:49:51;;;;;;;9.43;2.13;;;;;;;;;;5011169;28;20042;-78
2023/05/19 08:52:39;;;;;;;8.53;1.80;;;;;;;;;;5028356;28;20043;-78
2023/05/19 08:55:09;;;;;;;8.90;2.10;;;;;;;;;;5029202;28;20019;-79
2023/05/19 08:57:38;;;;;;;9.77;2.70;;;;;;;;;;5023859;28;20023;-78
2023/05/19 09:00:12;;;;;;;11.80;2.23;;;;;;;;;;5028611;28;20034;-77
2023/05/19 09:02:39;;;;;;;8.60;1.80;;;;;;;;;;5028614;28;20026;-78
2023/05/19 09:05:06;;;;;;;9.60;2.00;;;;;;;;;;5029224;28;20029;-78
2023/05/19 09:07:33;;;;;;;7.93;1.90;;;;;;;;;;5015417;28;21007;-80
2023/05/19 09:10:00;;;;;;;7.70;2.40;;;;;;;;;;5027814;28;20030;-79
2023/05/19 09:12:26;;;;;;;6.37;1.80;;;;;;;;;;5028191;28;20037;-78
2023/05/19 09:14:52;;;;;;;4.13;1.10;;;;;;;;;;5016997;28;20038;-79
2023/05/19 09:17:20;;;;;;;6.93;1.87;;;;;;;;;;5011944;28;20027;-79
2023/05/19 09:19:50;;;;;;;10.77;2.37;;;;;;;;;;5012249;28;20086;-80
2023/05/19 09:22:18;;;;;;;7.27;1.70;;;;;;;;;;5011020;28;20018;-78
2023/05/19 09:24:45;;;;;;;3.77;1.27;;;;;;;;;;5026767;28;20023;-79
2023/05/19 09:27:14;;;;;;;8.17;1.80;;;;;;;;;;5015922;28;20034;-80
2023/05/19 09:29:41;;;;;;;7.40;2.00;;;;;;;;;;5027550;28;20023;-79
2023/05/19 09:32:07;;;;;;;7.80;1.80;;;;;;;;;;5027070;28;20123;-80
2023/05/19 09:34:33;;;;;;;4.93;1.90;;;;;;;;;;5027955;28;20043;-79
2023/05/19 09:36:59;;;;;;;8.17;2.80;;;;;;;;;;5026679;28;20045;-78
2023/05/19 09:39:27;;;;;;;6.03;1.60;;;;;;;;;;5026874;28;20018;-79
2023/05/19 09:41:59;;;;;;;10.37;1.90;;;;;;;;;;5027808;28;20032;-80
2023/05/19 09:44:29;;;;;;;4.43;1.67;;;;;;;;;;5011332;28;20037;-78
2023/05/19 09:46:55;;;;;;;6.00;1.83;;;;;;;;;;5026940;28;20054;-78
2023/05/19 09:49:28;;;;;;;5.65;2.00;;;;;;;;;;5027122;28;20038;-79
2023/05/19 09:51:59;;;;;;;8.65;1.58;;;;;;;;;;5012287;28;20022;-78
2023/05/19 09:54:30;;;;;;;10.30;2.25;;;;;;;;;;5011054;28;20037;-79
2023/05/19 09:57:00;;;;;;;8.48;2.35;;;;;;;;;;5011067;28;20041;-79
2023/05/19 09:59:27;;;;;;;7.65;2.50;;;;;;;;;;5027355;28;20123;-78
2023/05/19 10:02:00;;;;;;;7.18;1.88;;;;;;;;;;5010103;28;20037;-79
2023/05/19 10:04:27;;;;;;;4.65;1.70;;;;;;;;;;5027393;28;20026;-79
2023/05/19 10:06:54;;;;;;;9.48;2.47;;;;;;;;;;5026262;28;20062;-78
2023/05/19 10:09:24;;;;;;;9.30;1.70;;;;;;;;;;5008359;28;20070;-79
2023/05/19 10:11:52;;;;;;;9.95;1.92;;;;;;;;;;5011665;28;20022;-79
2023/05/19 10:14:18;;;;;;;5.35;1.70;;;;;;;;;;5009916;28;20519;-77
2023/05/19 10:16:45;;;;;;;4.85;1.98;;;;;;;;;;5014299;28;20022;-78
2023/05/19 10:19:12;;;;;;;4.65;1.65;;;;;;;;;;5009481;28;20014;-78
2023/05/19 10:21:40;;;;;;;8.07;2.30;;;;;;;;;;5013568;28;20018;-79
2023/05/19 10:24:06;;;;;;;4.30;1.65;;;;;;;;;;5011174;28;20010;-80
2023/05/19 10:26:35;;;;;;;8.50;1.65;;;;;;;;;;5026681;28;20042;-79
2023/05/19 10:29:02;;;;;;;5.10;1.85;;;;;;;;;;5011011;28;20034;-79
2023/05/19 10:31:30;;;;;;;7.68;2.15;;;;;;;;;;5026574;28;20010;-79
2023/05/19 10:33:58;;;;;;;7.20;1.92;;;;;;;;;;5028035;28;20039;-79
2023/05/19 10:36:34;;;;;;;10.13;1.88;;;;;;;;;;5011052;28;20022;-79
2023/05/19 10:39:04;;;;;;;6.40;1.70;;;;;;;;;;5025926;28;20037;-79
2023/05/19 10:42:02;;;;;;;5.43;1.60;;;;;;;;;;5027462;28;20392;-78
2023/05/19 10:44:34;;;;;;;8.82;1.75;;;;;;;;;;4977613;28;20311;-78
2023/05/19 10:47:00;;;;;;;4.13;1.45;;;;;;;;;;5010970;28;20015;-79
2023/05/19 10:49:27;;;;;;;5.03;1.75;;;;;;;;;;5016612;28;20022;-79
2023/05/19 10:51:57;;;;;;;4.38;1.58;;;;;;;;;;5028602;28;20058;-78
2023/05/19 10:54:48;;;;;;;8.10;2.03;;;;;;;;;;5015787;28;20050;-78
2023/05/19 10:57:15;;;;;;;5.97;1.55;;;;;;;;;;5026494;28;20029;-79
2023/05/19 10:59:44;;;;;;;4.43;1.35;;;;;;;;;;5027502;28;20042;-79
2023/05/19 11:02:10;;;;;;;3.58;1.63;;;;;;;;;;5027103;28;20094;-79
2023/05/19 11:04:46;;;;;;;4.50;1.75;;;;;;;;;;5012705;28;20076;-80
2023/05/19 11:07:23;;;;;;;9.30;2.10;;;;;;;;;;5015087;28;20092;-79
2023/05/19 11:09:50;;;;;;;6.22;1.95;;;;;;;;;;5017136;28;20046;-78
2023/05/19 11:12:25;;;;;;;8.23;2.53;;;;;;;;;;5013664;28;20099;-79
2023/05/19 11:14:52;;;;;;;8.50;1.88;;;;;;;;;;5032435;28;20046;-80
2023/05/19 11:17:22;;;;;;;15.13;2.38;;;;;;;;;;5015322;28;20010;-79
2023/05/19 11:19:52;;;;;;;3.80;1.60;;;;;;;;;;5030748;28;20022;-78
2023/05/19 11:22:27;;;;;;;4.97;1.83;;;;;;;;;;5011880;28;20038;-79
2023/05/19 11:24:56;;;;;;;6.80;1.80;;;;;;;;;;5016773;28;20045;-80
2023/05/19 11:27:26;;;;;;;6.63;1.83;;;;;;;;;;5014861;28;20023;-79
2023/05/19 11:29:54;;;;;;;5.20;1.60;;;;;;;;;;5011509;28;20030;-80
2023/05/19 11:32:21;;;;;;;4.53;1.63;;;;;;;;;;5011703;28;20106;-79
2023/05/19 11:34:48;;;;;;;3.58;1.65;;;;;;;;;;5012511;28;20076;-81
2023/05/19 11:37:15;;;;;;;6.40;1.52;;;;;;;;;;5019697;28;20066;-80
2023/05/19 11:39:42;;;;;;;3.88;1.90;;;;;;;;;;5029657;28;20066;-80
2023/05/19 11:42:11;;;;;;;5.93;1.52;;;;;;;;;;5011948;28;20042;-81
2023/05/19 11:44:39;;;;;;;5.85;2.10;;;;;;;;;;5028730;28;20037;-80
2023/05/19 11:47:05;;;;;;;8.63;1.80;;;;;;;;;;5030920;28;20033;-79
2023/05/19 11:49:32;;;;;;;7.13;2.20;;;;;;;;;;5009277;28;20034;-81
2023/05/19 11:52:01;;;;;;;9.85;2.25;;;;;;;;;;5016582;28;20011;-78
2023/05/19 11:54:31;;;;;;;8.82;2.17;;;;;;;;;;5028473;28;20022;-80
2023/05/19 11:56:57;;;;;;;7.30;1.77;;;;;;;;;;5016906;28;20033;-78
2023/05/19 11:59:30;;;;;;;6.55;1.90;;;;;;;;;;5030186;28;20018;-78
2023/05/19 12:01:57;;;;;;;8.10;2.17;;;;;;;;;;5010471;28;20025;-80
2023/05/19 12:04:23;;;;;;;4.65;1.70;;;;;;;;;;5031629;28;20039;-80
2023/05/19 12:06:49;;;;;;;5.95;2.08;;;;;;;;;;5013515;28;20038;-78
2023/05/19 12:09:15;;;;;;;8.23;2.20;;;;;;;;;;5014550;28;20031;-80
2023/05/19 12:11:41;;;;;;;8.20;2.08;;;;;;;;;;5031228;28;20042;-79
2023/05/19 12:14:09;;;;;;;4.25;2.00;;;;;;;;;;5010905;28;20081;-81
2023/05/19 12:16:35;;;;;;;8.15;1.88;;;;;;;;;;5030242;28;20011;-78
2023/05/19 12:19:01;;;;;;;4.95;1.60;;;;;;;;;;5017414;28;20036;-79
2023/05/19 12:21:28;;;;;;;5.82;1.77;;;;;;;;;;5031300;28;20014;-78
2023/05/19 12:23:54;;;;;;;5.13;1.70;;;;;;;;;;5030759;28;20018;-80
2023/05/19 12:26:21;;;;;;;4.68;1.92;;;;;;;;;;5010634;28;20100;-79
2023/05/19 12:28:47;;;;;;;5.55;1.83;;;;;;;;;;5011574;28;20042;-79
2023/05/19 12:31:14;;;;;;;4.38;1.80;;;;;;;;;;5012513;28;20082;-78
2023/05/19 12:33:43;;;;;;;7.25;2.08;;;;;;;;;;5027815;28;20046;-78
2023/05/19 12:36:12;;;;;;;5.30;1.77;;;;;;;;;;5029313;28;20053;-79
2023/05/19 12:38:38;;;;;;;6.97;1.92;;;;;;;;;;5019121;28;20044;-79
2023/05/19 12:41:05;;;;;;;5.55;1.92;;;;;;;;;;5030096;28;20018;-79
2023/05/19 12:43:32;;;;;;;6.97;2.17;;;;;;;;;;5017067;28;20049;-78
2023/05/19 12:45:58;;;;;;;4.28;1.67;;;;;;;;;;5012491;28;20133;-78
2023/05/19 12:48:24;;;;;;;6.72;2.25;;;;;;;;;;5012931;28;20026;-79
2023/05/19 12:50:54;;;;;;;7.20;1.92;;;;;;;;;;5015305;28;20025;-78
2023/05/19 12:53:20;;;;;;;7.68;1.77;;;;;;;;;;5018919;28;20037;-78
2023/05/19 12:55:46;;;;;;;8.15;1.90;;;;;;;;;;5027487;28;20018;-78
2023/05/19 12:58:12;;;;;;;7.60;1.90;;;;;;;;;;5028849;28;20023;-79
2023/05/19 13:00:43;;;;;;;6.97;1.85;;;;;;;;;;5030050;28;20022;-80
2023/05/19 13:03:14;;;;;;;2.55;1.55;;;;;;;;;;5005268;28;20030;-83
2023/05/19 13:05:45;;;;;;;6.47;1.88;;;;;;;;;;5018638;28;20022;-81
2023/05/19 13:08:15;;;;;;;5.65;1.90;;;;;;;;;;5005311;28;20045;-79
2023/05/19 13:10:42;;;;;;;5.68;2.20;;;;;;;;;;5024990;28;20042;-77
2023/05/19 13:13:09;;;;;;;8.45;1.55;;;;;;;;;;5010184;28;20058;-79
2023/05/19 13:15:37;;;;;;;9.50;1.98;;;;;;;;;;5013915;28;20057;-79
2023/05/19 13:18:07;;;;;;;5.28;1.55;;;;;;;;;;5012036;28;20085;-78
2023/05/19 13:20:34;;;;;;;4.93;1.83;;;;;;;;;;5017470;28;20042;-79
2023/05/19 13:23:00;;;;;;;3.10;1.50;;;;;;;;;;5011624;28;20018;-79
2023/05/19 13:25:26;;;;;;;8.02;1.77;;;;;;;;;;5006596;28;20027;-80
2023/05/19 13:27:58;;;;;;;5.22;1.80;;;;;;;;;;5018889;28;20026;-81
2023/05/19 13:30:24;;;;;;;8.38;1.50;;;;;;;;;;4997145;28;20045;-84
2023/05/19 13:32:51;;;;;;;5.72;1.60;;;;;;;;;;5009052;28;20454;-83
2023/05/19 13:35:17;;;;;;;7.45;1.65;;;;;;;;;;5010656;28;20023;-84
2023/05/19 13:37:43;;;;;;;7.47;2.03;;;;;;;;;;4996419;28;20057;-84
2023/05/19 13:40:09;;;;;;;4.63;1.77;;;;;;;;;;5000567;28;21727;-83
2023/05/19 13:42:35;;;;;;;9.10;2.05;;;;;;;;;;5008222;28;20097;-84
2023/05/19 13:45:02;;;;;;;7.75;2.00;;;;;;;;;;4998572;28;20379;-83
2023/05/19 13:47:28;;;;;;;6.35;1.60;;;;;;;;;;5002565;28;20034;-84
2023/05/19 13:49:54;;;;;;;6.22;1.38;;;;;;;;;;4993263;28;20030;-84
2023/05/19 13:52:20;;;;;;;8.20;2.08;;;;;;;;;;4998872;28;20026;-85
2023/05/19 13:54:47;;;;;;;8.15;2.40;;;;;;;;;;4993766;28;20057;-84
2023/05/19 13:57:13;;;;;;;5.47;1.85;;;;;;;;;;5006230;28;20027;-84
2023/05/19 13:59:40;;;;;;;4.10;1.70;;;;;;;;;;5008887;28;20049;-84
2023/05/19 14:02:06;;;;;;;11.52;1.67;;;;;;;;;;4998389;28;20045;-81
2023/05/19 14:04:32;;;;;;;5.88;1.83;;;;;;;;;;5008738;28;20363;-84
2023/05/19 14:06:58;;;;;;;8.77;1.60;;;;;;;;;;5006888;28;20038;-83
2023/05/19 14:09:24;;;;;;;4.90;1.80;;;;;;;;;;5001320;28;20026;-83
2023/05/19 14:11:50;;;;;;;4.60;1.45;;;;;;;;;;4992918;28;21115;-84
2023/05/19 14:14:16;;;;;;;6.18;2.03;;;;;;;;;;5009331;28;20026;-84
2023/05/19 14:16:42;;;;;;;8.05;1.17;;;;;;;;;;4999627;28;20033;-84
2023/05/19 14:19:09;;;;;;;3.60;1.38;;;;;;;;;;5008463;28;20026;-85
2023/05/19 14:21:35;;;;;;;7.93;1.98;;;;;;;;;;4987379;28;20049;-84
2023/05/19 14:24:01;;;;;;;7.32;1.83;;;;;;;;;;4995591;28;20045;-84
2023/05/19 14:26:27;;;;;;;8.95;1.92;;;;;;;;;;4997359;28;20022;-83
2023/05/19 14:28:53;;;;;;;6.85;1.58;;;;;;;;;;4991757;28;20125;-84
2023/05/19 14:31:19;;;;;;;8.02;2.20;;;;;;;;;;5001086;28;20025;-84
2023/05/19 14:33:45;;;;;;;5.53;1.55;;;;;;;;;;4989560;28;20030;-84
2023/05/19 14:36:14;;;;;;;4.03;1.48;;;;;;;;;;4990145;28;20096;-85
2023/05/19 14:38:40;;;;;;;5.15;1.90;;;;;;;;;;5007391;28;20034;-84
2023/05/19 14:41:06;;;;;;;8.60;2.08;;;;;;;;;;5008151;28;20026;-84
2023/05/19 14:43:32;;;;;;;7.25;2.05;;;;;;;;;;4991198;28;20143;-83
2023/05/19 14:45:58;;;;;;;8.75;1.50;;;;;;;;;;5007947;28;20078;-83